WJA671 CYHZ-CYYC
Flight info
| Callsign | WJA671 |
|---|---|
| Flight time | N/A |
| Altitude | 34000 |
| Route | KELNO DCT EMLOB DCT PQI DCT YUC DCT PEMLU DCT MOGAG DCT 52N090W DCT DALDE DCT UDPAV BIRKO6 |
| Aircraft | B38M/M-SDE1FGHILORVWXY/HB1 |
Departure
| Time | N/A |
|---|---|
| Airport | Halifax / Stanfield International Airport (CYHZ) |
Arrival
| Time | 2026-04-29 00:30 |
|---|---|
| Airport | Calgary International Airport (CYYC) |
| Time | Latitude | Longitude | Altitude | Speed | Heading |
|---|---|---|---|---|---|
| 2026-04-28 23:10 | 52.32557 | -100.68512 | 34201 ft | 442 kts | 270° |
| 2026-04-28 23:10 | 52.32484 | -100.73530 | 34201 ft | 442 kts | 270° |
| 2026-04-28 23:11 | 52.32332 | -100.83570 | 34205 ft | 442 kts | 269° |
| 2026-04-28 23:11 | 52.32173 | -100.93623 | 34202 ft | 442 kts | 269° |
| 2026-04-28 23:12 | 52.32005 | -101.03674 | 34202 ft | 442 kts | 269° |
| 2026-04-28 23:12 | 52.31825 | -101.13718 | 34205 ft | 442 kts | 269° |
| 2026-04-28 23:13 | 52.31614 | -101.23774 | 34204 ft | 442 kts | 269° |
| 2026-04-28 23:13 | 52.31434 | -101.33840 | 34208 ft | 443 kts | 270° |
| 2026-04-28 23:14 | 52.31251 | -101.43889 | 34206 ft | 443 kts | 270° |
| 2026-04-28 23:14 | 52.31061 | -101.53941 | 34207 ft | 442 kts | 270° |
| 2026-04-28 23:15 | 52.30862 | -101.63986 | 34207 ft | 442 kts | 270° |
| 2026-04-28 23:15 | 52.30654 | -101.74028 | 34208 ft | 442 kts | 270° |
| 2026-04-28 23:16 | 52.30438 | -101.84070 | 34206 ft | 442 kts | 270° |
| 2026-04-28 23:16 | 52.30213 | -101.94112 | 34205 ft | 443 kts | 270° |
| 2026-04-28 23:17 | 52.29979 | -102.04162 | 34210 ft | 443 kts | 270° |
| 2026-04-28 23:17 | 52.29739 | -102.14140 | 34204 ft | 442 kts | 270° |
| 2026-04-28 23:18 | 52.29489 | -102.24171 | 34205 ft | 442 kts | 270° |
| 2026-04-28 23:18 | 52.29230 | -102.34208 | 34205 ft | 442 kts | 270° |
| 2026-04-28 23:19 | 52.28963 | -102.44229 | 34204 ft | 442 kts | 270° |
| 2026-04-28 23:19 | 52.28691 | -102.54249 | 34205 ft | 442 kts | 270° |
| 2026-04-28 23:20 | 52.28404 | -102.64265 | 34203 ft | 441 kts | 270° |
| 2026-04-28 23:20 | 52.28149 | -102.72651 | 34201 ft | 441 kts | 270° |
| 2026-04-28 23:21 | 52.27838 | -102.82587 | 34206 ft | 441 kts | 270° |
| 2026-04-28 23:21 | 52.27516 | -102.92576 | 34206 ft | 440 kts | 270° |
| 2026-04-28 23:22 | 52.27187 | -103.02566 | 34203 ft | 440 kts | 270° |
| 2026-04-28 23:22 | 52.26849 | -103.12539 | 34207 ft | 440 kts | 270° |
| 2026-04-28 23:23 | 52.26503 | -103.22513 | 34211 ft | 439 kts | 270° |
| 2026-04-28 23:23 | 52.26151 | -103.32409 | 34212 ft | 439 kts | 270° |
| 2026-04-28 23:24 | 52.25789 | -103.42362 | 34213 ft | 439 kts | 270° |
| 2026-04-28 23:24 | 52.25419 | -103.52294 | 34217 ft | 438 kts | 270° |
| 2026-04-28 23:25 | 52.25041 | -103.62222 | 34222 ft | 438 kts | 270° |
| 2026-04-28 23:25 | 52.24654 | -103.72161 | 34225 ft | 438 kts | 270° |
| 2026-04-28 23:26 | 52.24259 | -103.82071 | 34226 ft | 438 kts | 270° |
| 2026-04-28 23:26 | 52.23857 | -103.91968 | 34225 ft | 437 kts | 270° |
| 2026-04-28 23:27 | 52.23447 | -104.01860 | 34233 ft | 437 kts | 270° |
| 2026-04-28 23:27 | 52.23029 | -104.11743 | 34232 ft | 437 kts | 269° |
| 2026-04-28 23:28 | 52.22602 | -104.21627 | 34236 ft | 436 kts | 269° |
| 2026-04-28 23:28 | 52.22169 | -104.31485 | 34245 ft | 436 kts | 269° |
| 2026-04-28 23:29 | 52.21727 | -104.41339 | 34250 ft | 435 kts | 269° |
| 2026-04-28 23:29 | 52.21280 | -104.51120 | 34244 ft | 435 kts | 269° |
| 2026-04-28 23:30 | 52.20823 | -104.60953 | 34239 ft | 434 kts | 269° |
| 2026-04-28 23:30 | 52.20357 | -104.70780 | 34237 ft | 434 kts | 269° |
| 2026-04-28 23:31 | 52.19884 | -104.80597 | 34233 ft | 434 kts | 269° |
| 2026-04-28 23:31 | 52.19404 | -104.90388 | 34236 ft | 433 kts | 269° |
| 2026-04-28 23:32 | 52.18919 | -105.00106 | 34232 ft | 432 kts | 269° |
| 2026-04-28 23:32 | 52.18424 | -105.09874 | 34237 ft | 432 kts | 269° |
| 2026-04-28 23:33 | 52.17922 | -105.19625 | 34235 ft | 432 kts | 269° |
| 2026-04-28 23:33 | 52.17410 | -105.29380 | 34234 ft | 432 kts | 269° |
| 2026-04-28 23:34 | 52.16891 | -105.39138 | 34231 ft | 431 kts | 269° |
| 2026-04-28 23:34 | 52.16059 | -105.48843 | 34233 ft | 433 kts | 266° |
| 2026-04-28 23:35 | 52.15165 | -105.58471 | 34234 ft | 433 kts | 265° |
| 2026-04-28 23:35 | 52.14248 | -105.68154 | 34231 ft | 432 kts | 265° |
| 2026-04-28 23:36 | 52.13321 | -105.77838 | 34232 ft | 432 kts | 265° |
| 2026-04-28 23:36 | 52.12390 | -105.87488 | 34234 ft | 432 kts | 265° |
| 2026-04-28 23:37 | 52.11450 | -105.97136 | 34238 ft | 431 kts | 265° |
| 2026-04-28 23:37 | 52.10503 | -106.06769 | 34238 ft | 431 kts | 265° |
| 2026-04-28 23:38 | 52.09548 | -106.16405 | 34227 ft | 431 kts | 265° |
| 2026-04-28 23:38 | 52.08592 | -106.25970 | 34210 ft | 431 kts | 265° |
| 2026-04-28 23:39 | 52.07622 | -106.35586 | 34192 ft | 431 kts | 265° |
| 2026-04-28 23:39 | 52.06647 | -106.45183 | 34172 ft | 430 kts | 265° |
| 2026-04-28 23:40 | 52.05663 | -106.54779 | 34161 ft | 430 kts | 265° |
| 2026-04-28 23:40 | 52.04672 | -106.64363 | 34155 ft | 430 kts | 265° |
| 2026-04-28 23:41 | 52.03673 | -106.73946 | 34156 ft | 430 kts | 264° |
| 2026-04-28 23:41 | 52.02667 | -106.83512 | 34164 ft | 430 kts | 264° |
| 2026-04-28 23:42 | 52.01653 | -106.93089 | 34175 ft | 430 kts | 264° |
| 2026-04-28 23:42 | 52.00638 | -107.02583 | 34187 ft | 430 kts | 264° |
| 2026-04-28 23:43 | 51.99610 | -107.12137 | 34197 ft | 429 kts | 264° |
| 2026-04-28 23:43 | 51.98574 | -107.21681 | 34208 ft | 429 kts | 264° |
| 2026-04-28 23:44 | 51.97529 | -107.31230 | 34203 ft | 429 kts | 264° |
| 2026-04-28 23:44 | 51.96478 | -107.40763 | 34201 ft | 429 kts | 264° |
| 2026-04-28 23:45 | 51.95420 | -107.50283 | 34197 ft | 429 kts | 264° |
| 2026-04-28 23:45 | 51.94357 | -107.59779 | 34196 ft | 429 kts | 263° |
| 2026-04-28 23:46 | 51.93291 | -107.69224 | 34198 ft | 428 kts | 263° |
| 2026-04-28 23:46 | 51.92214 | -107.78704 | 34200 ft | 428 kts | 263° |
| 2026-04-28 23:47 | 51.91126 | -107.88196 | 34197 ft | 428 kts | 263° |
| 2026-04-28 23:47 | 51.90033 | -107.97670 | 34196 ft | 428 kts | 263° |
| 2026-04-28 23:48 | 51.88932 | -108.07143 | 34198 ft | 428 kts | 263° |
| 2026-04-28 23:48 | 51.87824 | -108.16603 | 34199 ft | 427 kts | 262° |
| 2026-04-28 23:49 | 51.86709 | -108.26053 | 34198 ft | 427 kts | 262° |
| 2026-04-28 23:49 | 51.85587 | -108.35494 | 34192 ft | 427 kts | 262° |
| 2026-04-28 23:50 | 51.84457 | -108.44936 | 34190 ft | 428 kts | 262° |
| 2026-04-28 23:50 | 51.83319 | -108.54377 | 34191 ft | 427 kts | 262° |
| 2026-04-28 23:51 | 51.82181 | -108.63743 | 34192 ft | 427 kts | 262° |
| 2026-04-28 23:51 | 51.81026 | -108.73187 | 34192 ft | 427 kts | 262° |
| 2026-04-28 23:52 | 51.79866 | -108.82609 | 34190 ft | 428 kts | 261° |
| 2026-04-28 23:52 | 51.78698 | -108.92032 | 34170 ft | 428 kts | 261° |
| 2026-04-28 23:53 | 51.77520 | -109.01464 | 34160 ft | 428 kts | 261° |
| 2026-04-28 23:53 | 51.76344 | -109.10821 | 34150 ft | 428 kts | 261° |
| 2026-04-28 23:54 | 51.75153 | -109.20228 | 34147 ft | 428 kts | 261° |
| 2026-04-28 23:54 | 51.73953 | -109.29639 | 34141 ft | 428 kts | 261° |
| 2026-04-28 23:55 | 51.72748 | -109.39033 | 34147 ft | 428 kts | 261° |
| 2026-04-28 23:55 | 51.71534 | -109.48434 | 34149 ft | 428 kts | 261° |
| 2026-04-28 23:56 | 51.70312 | -109.57827 | 34158 ft | 428 kts | 261° |
| 2026-04-28 23:56 | 51.69083 | -109.67212 | 34168 ft | 428 kts | 261° |
| 2026-04-28 23:57 | 51.67847 | -109.76594 | 34170 ft | 427 kts | 261° |
| 2026-04-28 23:57 | 51.66613 | -109.85895 | 34168 ft | 427 kts | 261° |
| 2026-04-28 23:58 | 51.65363 | -109.95253 | 34161 ft | 428 kts | 261° |
| 2026-04-28 23:58 | 51.64105 | -110.04617 | 34165 ft | 428 kts | 261° |
| 2026-04-28 23:59 | 51.62839 | -110.13978 | 34158 ft | 427 kts | 261° |
| 2026-04-28 23:59 | 51.61566 | -110.23326 | 34160 ft | 427 kts | 261° |
| 2026-04-29 00:00 | 51.60286 | -110.32665 | 34157 ft | 427 kts | 261° |
| 2026-04-29 00:00 | 51.58998 | -110.42012 | 34151 ft | 427 kts | 261° |
| 2026-04-29 00:01 | 51.57712 | -110.51280 | 34157 ft | 427 kts | 261° |
| 2026-04-29 00:01 | 51.56411 | -110.60597 | 34163 ft | 427 kts | 261° |
| 2026-04-29 00:02 | 51.55102 | -110.69911 | 34157 ft | 427 kts | 261° |
| 2026-04-29 00:02 | 51.53787 | -110.79219 | 34162 ft | 427 kts | 261° |
| 2026-04-29 00:03 | 51.52466 | -110.88505 | 34150 ft | 426 kts | 261° |
| 2026-04-29 00:03 | 51.51138 | -110.97780 | 34148 ft | 426 kts | 261° |
| 2026-04-29 00:04 | 51.49813 | -111.06988 | 34152 ft | 426 kts | 261° |
| 2026-04-29 00:04 | 51.48493 | -111.16099 | 33999 ft | 408 kts | 261° |
| 2026-04-29 00:05 | 51.47850 | -111.20521 | 33476 ft | 406 kts | 261° |
| 2026-04-29 00:05 | 51.47209 | -111.24910 | 32941 ft | 404 kts | 261° |
| 2026-04-29 00:05 | 51.46570 | -111.29280 | 32469 ft | 401 kts | 261° |
| 2026-04-29 00:05 | 51.45935 | -111.33611 | 32012 ft | 397 kts | 261° |
| 2026-04-29 00:06 | 51.45302 | -111.37909 | 31563 ft | 394 kts | 261° |
| 2026-04-29 00:06 | 51.44673 | -111.42173 | 31118 ft | 392 kts | 261° |
| 2026-04-29 00:06 | 51.44047 | -111.46405 | 30675 ft | 389 kts | 260° |
| 2026-04-29 00:06 | 51.43424 | -111.50608 | 30243 ft | 387 kts | 260° |
| 2026-04-29 00:07 | 51.42803 | -111.54783 | 29744 ft | 384 kts | 260° |
| 2026-04-29 00:07 | 51.42184 | -111.58933 | 29296 ft | 380 kts | 260° |
| 2026-04-29 00:07 | 51.41570 | -111.63035 | 28884 ft | 376 kts | 260° |
| 2026-04-29 00:07 | 51.40962 | -111.67092 | 28479 ft | 372 kts | 260° |
| 2026-04-29 00:08 | 51.40360 | -111.71099 | 28080 ft | 369 kts | 260° |
| 2026-04-29 00:08 | 51.39761 | -111.75074 | 27680 ft | 365 kts | 260° |
| 2026-04-29 00:08 | 51.39167 | -111.79007 | 27291 ft | 362 kts | 260° |
| 2026-04-29 00:08 | 51.38768 | -111.81647 | 27028 ft | 360 kts | 260° |
| 2026-04-29 00:09 | 51.38179 | -111.85527 | 26650 ft | 357 kts | 260° |
| 2026-04-29 00:09 | 51.37593 | -111.89382 | 26277 ft | 354 kts | 259° |
| 2026-04-29 00:09 | 51.37012 | -111.93199 | 25905 ft | 352 kts | 259° |
| 2026-04-29 00:09 | 51.36433 | -111.96986 | 25535 ft | 349 kts | 259° |
| 2026-04-29 00:10 | 51.35857 | -112.00747 | 25179 ft | 347 kts | 259° |
| 2026-04-29 00:10 | 51.35284 | -112.04480 | 24826 ft | 345 kts | 259° |
| 2026-04-29 00:10 | 51.34713 | -112.08192 | 24468 ft | 342 kts | 259° |
| 2026-04-29 00:10 | 51.34145 | -112.11875 | 24117 ft | 341 kts | 259° |
| 2026-04-29 00:11 | 51.33578 | -112.15547 | 23763 ft | 339 kts | 259° |
| 2026-04-29 00:11 | 51.33012 | -112.19206 | 23361 ft | 337 kts | 259° |
| 2026-04-29 00:11 | 51.31890 | -112.26425 | 22630 ft | 331 kts | 259° |
| 2026-04-29 00:12 | 51.31337 | -112.29970 | 22296 ft | 327 kts | 259° |
| 2026-04-29 00:12 | 51.30788 | -112.33485 | 21957 ft | 324 kts | 259° |
| 2026-04-29 00:12 | 51.30244 | -112.36960 | 21625 ft | 321 kts | 259° |
| 2026-04-29 00:12 | 51.29702 | -112.40412 | 21304 ft | 318 kts | 259° |
| 2026-04-29 00:13 | 51.29174 | -112.43771 | 20989 ft | 315 kts | 259° |
| 2026-04-29 00:13 | 51.28641 | -112.47151 | 20664 ft | 313 kts | 259° |
| 2026-04-29 00:13 | 51.28111 | -112.50510 | 20346 ft | 310 kts | 259° |
| 2026-04-29 00:13 | 51.27586 | -112.53830 | 20038 ft | 307 kts | 259° |
| 2026-04-29 00:14 | 51.27063 | -112.57124 | 19724 ft | 305 kts | 259° |
| 2026-04-29 00:14 | 51.26539 | -112.60424 | 19402 ft | 309 kts | 259° |
| 2026-04-29 00:14 | 51.26006 | -112.63777 | 19082 ft | 313 kts | 259° |
| 2026-04-29 00:14 | 51.25467 | -112.67156 | 18771 ft | 314 kts | 259° |
| 2026-04-29 00:15 | 51.24927 | -112.70532 | 18455 ft | 312 kts | 259° |
| 2026-04-29 00:15 | 51.24391 | -112.73881 | 18094 ft | 311 kts | 259° |
| 2026-04-29 00:15 | 51.23856 | -112.77216 | 17723 ft | 309 kts | 259° |
| 2026-04-29 00:15 | 51.23324 | -112.80529 | 17382 ft | 307 kts | 259° |
| 2026-04-29 00:16 | 51.22794 | -112.83815 | 17062 ft | 304 kts | 259° |
| 2026-04-29 00:16 | 51.22269 | -112.87065 | 16745 ft | 301 kts | 259° |
| 2026-04-29 00:16 | 51.21747 | -112.90291 | 16432 ft | 298 kts | 260° |
| 2026-04-29 00:16 | 51.21238 | -112.93433 | 16129 ft | 295 kts | 260° |
| 2026-04-29 00:17 | 51.20726 | -112.96589 | 15822 ft | 293 kts | 260° |
| 2026-04-29 00:17 | 51.20218 | -112.99714 | 15513 ft | 290 kts | 260° |
| 2026-04-29 00:17 | 51.19712 | -113.02815 | 15224 ft | 287 kts | 261° |
| 2026-04-29 00:17 | 51.19212 | -113.05885 | 14924 ft | 285 kts | 261° |
| 2026-04-29 00:18 | 51.18712 | -113.08940 | 14617 ft | 284 kts | 261° |
| 2026-04-29 00:18 | 51.18215 | -113.11972 | 14321 ft | 282 kts | 261° |
| 2026-04-29 00:18 | 51.17720 | -113.14989 | 14023 ft | 281 kts | 261° |
| 2026-04-29 00:18 | 51.17226 | -113.17989 | 13699 ft | 279 kts | 261° |
| 2026-04-29 00:19 | 51.16734 | -113.20970 | 13377 ft | 277 kts | 261° |
| 2026-04-29 00:19 | 51.16247 | -113.23924 | 13076 ft | 274 kts | 261° |
| 2026-04-29 00:19 | 51.15763 | -113.26848 | 12785 ft | 272 kts | 261° |
| 2026-04-29 00:19 | 51.15284 | -113.29743 | 12500 ft | 269 kts | 261° |
| 2026-04-29 00:20 | 51.14809 | -113.32607 | 12210 ft | 266 kts | 261° |
| 2026-04-29 00:20 | 51.14337 | -113.35445 | 11934 ft | 264 kts | 260° |
| 2026-04-29 00:20 | 51.13869 | -113.38260 | 11651 ft | 262 kts | 260° |
| 2026-04-29 00:20 | 51.13402 | -113.41058 | 11363 ft | 260 kts | 259° |
| 2026-04-29 00:21 | 51.12938 | -113.43846 | 11090 ft | 263 kts | 259° |
| 2026-04-29 00:21 | 51.12463 | -113.46685 | 10804 ft | 268 kts | 259° |
| 2026-04-29 00:21 | 51.12143 | -113.48594 | 10607 ft | 270 kts | 258° |
| 2026-04-29 00:21 | 51.12054 | -113.49127 | 10555 ft | 270 kts | 258° |
| 2026-04-29 00:22 | 51.11567 | -113.52028 | 10254 ft | 271 kts | 258° |
| 2026-04-29 00:22 | 51.11080 | -113.54925 | 10068 ft | 266 kts | 258° |
| 2026-04-29 00:22 | 51.10604 | -113.57755 | 9745 ft | 264 kts | 257° |
| 2026-04-29 00:22 | 51.10128 | -113.60574 | 9441 ft | 264 kts | 257° |
| 2026-04-29 00:23 | 51.09659 | -113.63359 | 9133 ft | 263 kts | 257° |
| 2026-04-29 00:23 | 51.09186 | -113.66155 | 8838 ft | 261 kts | 257° |
| 2026-04-29 00:23 | 51.08717 | -113.68927 | 8647 ft | 256 kts | 257° |
| 2026-04-29 00:23 | 51.08261 | -113.71616 | 8516 ft | 248 kts | 257° |
| 2026-04-29 00:24 | 51.07816 | -113.74231 | 8391 ft | 241 kts | 257° |
| 2026-04-29 00:24 | 51.07384 | -113.76775 | 8231 ft | 235 kts | 257° |
| 2026-04-29 00:24 | 51.06966 | -113.79240 | 8123 ft | 228 kts | 257° |
| 2026-04-29 00:24 | 51.06529 | -113.81666 | 8008 ft | 230 kts | 251° |
| 2026-04-29 00:25 | 51.05543 | -113.83629 | 7767 ft | 234 kts | 213° |
| 2026-04-29 00:25 | 51.03992 | -113.84471 | 7564 ft | 239 kts | 189° |
| 2026-04-29 00:25 | 51.02341 | -113.84817 | 7431 ft | 241 kts | 191° |
| 2026-04-29 00:25 | 51.00740 | -113.85511 | 7209 ft | 235 kts | 205° |
| 2026-04-29 00:26 | 50.99395 | -113.86867 | 6926 ft | 226 kts | 227° |
| 2026-04-29 00:26 | 50.98526 | -113.88859 | 6649 ft | 217 kts | 250° |
| 2026-04-29 00:26 | 50.98171 | -113.91126 | 6393 ft | 208 kts | 269° |
| 2026-04-29 00:26 | 50.98270 | -113.93366 | 6137 ft | 200 kts | 286° |
| 2026-04-29 00:27 | 50.98767 | -113.95366 | 5886 ft | 191 kts | 303° |
| 2026-04-29 00:27 | 50.99567 | -113.96990 | 5669 ft | 183 kts | 318° |
| 2026-04-29 00:27 | 51.00542 | -113.98138 | 5481 ft | 169 kts | 333° |
| 2026-04-29 00:27 | 51.01623 | -113.98825 | 5312 ft | 164 kts | 346° |
| 2026-04-29 00:28 | 51.02710 | -113.99062 | 5203 ft | 154 kts | 359° |
| 2026-04-29 00:28 | 51.03768 | -113.99058 | 5167 ft | 152 kts | 0° |
| 2026-04-29 00:28 | 51.04825 | -113.99036 | 4937 ft | 150 kts | 0° |
| 2026-04-29 00:28 | 51.05855 | -113.99053 | 4722 ft | 151 kts | 359° |
| 2026-04-29 00:29 | 51.06899 | -113.99082 | 4351 ft | 149 kts | 1° |
| 2026-04-29 00:29 | 51.07937 | -113.99076 | 4155 ft | 148 kts | 2° |
| 2026-04-29 00:29 | 51.08977 | -113.99042 | 4027 ft | 150 kts | 2° |
| 2026-04-29 00:29 | 51.10005 | -113.99050 | 3821 ft | 147 kts | 1° |
| 2026-04-29 00:30 | 51.11036 | -113.99043 | 3600 ft | 151 kts | 2° |
| 2026-04-29 00:30 | 51.12005 | -113.99034 | 3565 ft | 116 kts | 1° |
| 2026-04-29 00:30 | 51.12598 | -113.99027 | 3564 ft | 62 kts | 1° |
| 2026-04-29 00:30 | 51.12913 | -113.99063 | 3562 ft | 34 kts | 341° |
| 2026-04-29 00:31 | 51.13072 | -113.99177 | 3560 ft | 14 kts | 331° |
| 2026-04-29 00:31 | 51.13095 | -113.99197 | 3559 ft | 3 kts | 328° |
| 2026-04-29 00:31 | 51.13128 | -113.99229 | 3559 ft | 10 kts | 329° |
| 2026-04-29 00:31 | 51.13183 | -113.99303 | 3561 ft | 8 kts | 268° |
| 2026-04-29 00:32 | 51.13142 | -113.99424 | 3558 ft | 17 kts | 215° |
| 2026-04-29 00:32 | 51.13002 | -113.99442 | 3556 ft | 22 kts | 180° |
| 2026-04-29 00:32 | 51.12846 | -113.99446 | 3560 ft | 23 kts | 179° |
| 2026-04-29 00:32 | 51.12690 | -113.99444 | 3562 ft | 18 kts | 179° |
| 2026-04-29 00:33 | 51.12612 | -113.99561 | 3562 ft | 18 kts | 265° |
| 2026-04-29 00:33 | 51.12611 | -113.99771 | 3562 ft | 20 kts | 271° |
| 2026-04-29 00:33 | 51.12611 | -113.99996 | 3562 ft | 21 kts | 270° |
| 2026-04-29 00:33 | 51.12613 | -114.00235 | 3562 ft | 22 kts | 270° |
| 2026-04-29 00:34 | 51.12612 | -114.00484 | 3562 ft | 23 kts | 270° |
| 2026-04-29 00:34 | 51.12613 | -114.00748 | 3562 ft | 24 kts | 270° |
| 2026-04-29 00:34 | 51.12612 | -114.01020 | 3562 ft | 22 kts | 269° |
| 2026-04-29 00:34 | 51.12604 | -114.01261 | 3562 ft | 21 kts | 266° |
| 2026-04-29 00:35 | 51.12601 | -114.01496 | 3558 ft | 22 kts | 270° |
| 2026-04-29 00:35 | 51.12651 | -114.01680 | 3562 ft | 20 kts | 348° |
| 2026-04-29 00:35 | 51.12791 | -114.01682 | 3559 ft | 21 kts | 0° |
| 2026-04-29 00:35 | 51.12937 | -114.01682 | 3562 ft | 21 kts | 360° |
| 2026-04-29 00:36 | 51.13087 | -114.01681 | 3562 ft | 18 kts | 360° |
| 2026-04-29 00:36 | 51.13150 | -114.01613 | 3561 ft | 12 kts | 77° |
| 2026-04-29 00:36 | 51.13150 | -114.01472 | 3560 ft | 13 kts | 105° |
| 2026-04-29 00:36 | 51.13096 | -114.01392 | 3562 ft | 2 kts | 155° |
| 2026-04-29 00:37 | 51.13081 | -114.01370 | 3558 ft | 3 kts | 119° |
| 2026-04-29 00:37 | 51.13080 | -114.01327 | 3560 ft | 4 kts | 69° |
| 2026-04-29 00:37 | 51.13099 | -114.01281 | 3562 ft | 4 kts | 54° |
| 2026-04-29 00:37 | 51.13103 | -114.01272 | 3560 ft | 2 kts | 54° |
| 2026-04-29 00:38 | 51.13110 | -114.01257 | 3562 ft | 2 kts | 54° |
| 2026-04-29 00:38 | 51.13114 | -114.01248 | 3557 ft | 0 kts | 54° |